Galloway, Wisconsin
Current Conditions -  °F | °C
As of 6:35 AM on Thursday 18 Dec 2014 (Local Time) from KSTE Reporting Station
Overcast Overcast  
Wind Chill: 17°   Ceiling: 1300
Heat Index: 23°   Visibility: 10mi
Dew Point: 19°   Wind: 5mph
Humidity: 84%   Direction: 10°N
Pressure: 30.25"   Gusts: NA
Location:  44.71°N, 89.26°W
Report Text: KSTE 181235Z AUTO 01004KT 10SM OVC013 M05/M07 A3025 RMK AO2 T10521075
Loading
Personal Weather Stations






























Interactive Weather Map New forecast layout! Learn more

10-Day Weather Forecast

Advertisements
Track Severe Weather on mobile